Time;durP1;ratioP1;P1;durP2;ratioP2;P2;SDS_P1;SDS_P2;PMS_P1;PMS_P2;Temp;Humidity;BMP_temperature;BMP_pressure;BME280_temperature;BME280_humidity;BME280_pressure;Samples;Min_cycle;Max_cycle;Signal;HPM_P1;HPM_P2
2021/09/11 00:00:04;;;;;;;9.10;5.07;;;;;;;17.54;82.24;101434.06;696498;28;1096;-61
2021/09/11 00:00:25;;;;;;;9.65;4.82;;;;;;;17.54;82.15;101429.56;696554;28;1046;-61
2021/09/11 00:00:48;;;;;;;8.67;4.63;;;;;;;17.54;82.06;101434.91;696626;28;927;-61
2021/09/11 00:01:11;;;;;;;10.77;5.20;;;;;;;17.54;82.29;101437.56;696634;28;959;-62
2021/09/11 00:01:31;;;;;;;9.10;4.70;;;;;;;17.55;81.98;101436.63;696574;28;900;-61
2021/09/11 00:01:51;;;;;;;9.07;4.70;;;;;;;17.54;82.24;101432.25;696601;28;830;-61
2021/09/11 00:02:12;;;;;;;11.50;5.07;;;;;;;17.56;82.00;101432.16;696478;28;974;-62
2021/09/11 00:02:32;;;;;;;9.85;5.00;;;;;;;17.54;82.09;101434.91;696522;28;887;-62
2021/09/11 00:02:55;;;;;;;9.30;4.83;;;;;;;17.55;82.09;101436.63;696131;28;833;-62
2021/09/11 00:03:15;;;;;;;9.95;4.63;;;;;;;17.55;82.17;101431.31;696524;28;899;-62
2021/09/11 00:03:35;;;;;;;8.77;4.80;;;;;;;17.54;82.16;101426.91;696594;28;805;-61
2021/09/11 00:03:56;;;;;;;9.27;4.90;;;;;;;17.54;82.24;101434.06;696497;28;884;-62
2021/09/11 00:04:16;;;;;;;8.88;4.60;;;;;;;17.53;82.37;101433.19;696408;28;939;-62
2021/09/11 00:04:37;;;;;;;8.97;4.80;;;;;;;17.51;82.40;101436.91;696609;28;1018;-61
2021/09/11 00:04:57;;;;;;;10.23;4.93;;;;;;;17.49;82.42;101437.00;696620;28;847;-62
2021/09/11 00:05:17;;;;;;;11.55;5.45;;;;;;;17.50;82.22;101429.88;696391;28;1374;-61
2021/09/11 00:05:41;;;;;;;10.10;4.90;;;;;;;17.50;82.18;101425.38;696567;28;927;-62
2021/09/11 00:06:01;;;;;;;9.77;4.80;;;;;;;17.50;82.44;101436.03;696357;28;871;-61
2021/09/11 00:06:23;;;;;;;10.80;4.97;;;;;;;17.49;82.40;101429.00;696339;28;1398;-61
2021/09/11 00:06:44;;;;;;;10.85;4.90;;;;;;;17.50;82.28;101437.84;696665;28;1089;-61
2021/09/11 00:07:04;;;;;;;9.63;4.87;;;;;;;17.49;82.55;101437.00;696502;28;997;-62
2021/09/11 00:07:24;;;;;;;9.05;5.10;;;;;;;17.49;82.56;101439.66;696590;28;958;-61
2021/09/11 00:07:45;;;;;;;9.87;5.10;;;;;;;17.51;82.27;101440.41;696325;28;1369;-61
2021/09/11 00:08:05;;;;;;;10.43;5.03;;;;;;;17.51;82.50;101439.56;696405;28;851;-61
2021/09/11 00:08:26;;;;;;;10.50;4.90;;;;;;;17.50;82.26;101438.72;696489;28;847;-61
2021/09/11 00:08:52;;;;;;;10.60;5.23;;;;;;;17.50;82.42;101432.53;696596;28;844;-61
2021/09/11 00:09:12;;;;;;;9.73;5.35;;;;;;;17.50;82.21;101436.03;696562;28;904;-62
2021/09/11 00:09:32;;;;;;;10.23;4.93;;;;;;;17.51;82.41;101437.75;696546;28;1018;-61
2021/09/11 00:09:53;;;;;;;9.33;4.73;;;;;;;17.52;82.31;101431.50;696441;28;936;-62
2021/09/11 00:10:13;;;;;;;9.27;5.10;;;;;;;17.52;82.48;101436.81;696366;28;1922;-62
2021/09/11 00:10:33;;;;;;;9.60;5.20;;;;;;;17.52;82.39;101436.81;696438;28;1050;-61
2021/09/11 00:10:54;;;;;;;10.20;5.07;;;;;;;17.51;82.48;101436.91;696442;28;875;-61
2021/09/11 00:11:14;;;;;;;9.77;4.87;;;;;;;17.50;82.72;101441.38;696566;28;784;-62
2021/09/11 00:11:34;;;;;;;9.77;4.90;;;;;;;17.49;82.63;101434.34;696575;28;887;-60
2021/09/11 00:12:00;;;;;;;9.53;4.70;;;;;;;17.52;82.60;101435.97;696425;28;851;-61
2021/09/11 00:12:23;;;;;;;11.95;5.00;;;;;;;17.51;82.61;101435.09;696399;28;1125;-61
2021/09/11 00:12:44;;;;;;;11.77;5.05;;;;;;;17.51;82.69;101435.09;696056;28;954;-62
2021/09/11 00:13:05;;;;;;;10.07;4.85;;;;;;;17.53;82.48;101435.84;696473;28;1014;-60
2021/09/11 00:13:25;;;;;;;11.17;4.87;;;;;;;17.52;82.61;101439.50;696544;28;879;-61
2021/09/11 00:13:45;;;;;;;10.00;5.07;;;;;;;17.52;82.68;101436.81;696504;28;879;-61
2021/09/11 00:14:06;;;;;;;9.73;4.53;;;;;;;17.51;82.48;101437.75;696420;28;1248;-61
2021/09/11 00:14:26;;;;;;;9.80;4.57;;;;;;;17.53;82.84;101435.84;696238;28;1010;-61
2021/09/11 00:14:49;;;;;;;10.47;4.80;;;;;;;17.53;82.69;101437.69;696229;28;823;-61
2021/09/11 00:15:12;;;;;;;10.90;5.63;;;;;;;17.52;82.82;101435.97;696264;28;1375;-62
2021/09/11 00:15:32;;;;;;;9.63;4.80;;;;;;;17.53;82.38;101443.84;696257;28;920;-62
2021/09/11 00:15:55;;;;;;;10.10;5.03;;;;;;;17.55;82.61;101435.78;696346;28;868;-61
2021/09/11 00:16:18;;;;;;;10.52;5.10;;;;;;;17.55;82.12;101436.63;696294;28;976;-62
2021/09/11 00:16:39;;;;;;;12.45;5.07;;;;;;;17.56;82.41;101430.34;696343;28;1328;-62
2021/09/11 00:16:59;;;;;;;10.85;5.15;;;;;;;17.56;82.34;101445.47;696574;28;1053;-62
2021/09/11 00:17:19;;;;;;;10.20;4.90;;;;;;;17.56;82.45;101440.16;696500;28;864;-62
2021/09/11 00:17:41;;;;;;;9.23;4.90;;;;;;;17.56;82.39;101433.00;696541;28;848;-62
2021/09/11 00:18:03;;;;;;;10.13;5.03;;;;;;;17.53;82.54;101433.19;696531;28;982;-62
2021/09/11 00:18:24;;;;;;;11.40;5.18;;;;;;;17.52;82.56;101435.97;696321;28;1046;-62
2021/09/11 00:18:44;;;;;;;11.70;4.93;;;;;;;17.50;82.32;101436.03;696514;28;1049;-62
2021/09/11 00:19:04;;;;;;;10.67;5.00;;;;;;;17.51;82.53;101440.41;696447;28;903;-60
2021/09/11 00:19:24;;;;;;;10.27;5.17;;;;;;;17.50;82.77;101436.03;696459;28;934;-61
2021/09/11 00:19:45;;;;;;;11.18;4.97;;;;;;;17.51;82.51;101435.09;696523;28;864;-61
2021/09/11 00:20:07;;;;;;;9.07;4.90;;;;;;;17.49;82.62;101431.69;696469;28;841;-62
2021/09/11 00:20:28;;;;;;;8.00;4.75;;;;;;;17.49;82.71;101437.00;696390;28;994;-60
2021/09/11 00:20:49;;;;;;;8.10;5.05;;;;;;;17.49;82.79;101430.81;696490;28;958;-61
2021/09/11 00:21:09;;;;;;;8.83;5.40;;;;;;;17.49;82.54;101434.34;696339;28;888;-61
2021/09/11 00:21:29;;;;;;;9.37;5.53;;;;;;;17.50;82.58;101427.19;696555;28;907;-61
2021/09/11 00:21:50;;;;;;;9.40;5.20;;;;;;;17.56;82.43;101438.34;696527;28;837;-61
2021/09/11 00:22:10;;;;;;;10.63;5.50;;;;;;;17.55;82.60;101430.44;696448;28;847;-62
2021/09/11 00:22:30;;;;;;;12.40;5.87;;;;;;;17.54;82.30;101434.91;696452;28;958;-61
2021/09/11 00:22:50;;;;;;;9.77;5.23;;;;;;;17.54;82.27;101429.56;696104;28;860;-60
2021/09/11 00:23:11;;;;;;;8.77;4.87;;;;;;;17.55;82.33;101431.31;696447;28;804;-61
2021/09/11 00:23:32;;;;;;;9.35;5.28;;;;;;;17.54;82.29;101432.25;696573;28;978;-62
2021/09/11 00:23:52;;;;;;;9.33;5.17;;;;;;;17.54;82.22;101434.91;696434;28;871;-61
2021/09/11 00:24:13;;;;;;;10.13;5.13;;;;;;;17.54;82.30;101428.72;696470;28;985;-61
2021/09/11 00:24:33;;;;;;;9.82;5.20;;;;;;;17.52;82.36;101425.31;696415;28;950;-61
2021/09/11 00:24:53;;;;;;;10.97;5.33;;;;;;;17.52;82.45;101425.31;696474;28;873;-61
2021/09/11 00:25:13;;;;;;;11.67;5.20;;;;;;;17.52;82.32;101431.50;696434;28;1265;-61
2021/09/11 00:25:37;;;;;;;10.43;5.30;;;;;;;17.53;82.32;101433.19;696584;28;796;-62
2021/09/11 00:25:59;;;;;;;10.38;5.10;;;;;;;17.54;82.40;101434.06;696377;28;883;-61
2021/09/11 00:26:19;;;;;;;10.10;5.30;;;;;;;17.54;82.51;101434.91;696497;28;868;-61
2021/09/11 00:26:39;;;;;;;9.00;5.13;;;;;;;17.54;82.46;101429.56;696453;28;912;-60
2021/09/11 00:27:00;;;;;;;10.60;5.65;;;;;;;17.54;82.50;101434.06;696448;28;885;-61
2021/09/11 00:27:20;;;;;;;11.70;5.70;;;;;;;17.53;82.25;101427.88;696579;28;1068;-63
2021/09/11 00:27:40;;;;;;;11.83;5.43;;;;;;;17.53;82.40;101424.34;696492;28;833;-61
2021/09/11 00:28:01;;;;;;;10.90;5.00;;;;;;;17.53;82.28;101427.88;696383;28;1054;-61
2021/09/11 00:28:21;;;;;;;10.90;5.20;;;;;;;17.52;82.29;101430.63;696463;28;844;-61
2021/09/11 00:28:41;;;;;;;10.07;5.07;;;;;;;17.53;82.48;101435.84;696402;28;1044;-61
2021/09/11 00:29:01;;;;;;;10.02;5.15;;;;;;;17.54;82.50;101428.72;696453;28;848;-62
2021/09/11 00:29:25;;;;;;;10.33;4.93;;;;;;;17.55;82.14;101428.66;696411;28;995;-62
2021/09/11 00:29:46;;;;;;;8.77;4.85;;;;;;;17.55;82.33;101431.31;696339;28;1097;-62
2021/09/11 00:30:06;;;;;;;10.13;5.23;;;;;;;17.54;82.43;101434.91;696371;28;1906;-61
2021/09/11 00:30:27;;;;;;;10.57;5.13;;;;;;;17.55;82.58;101430.44;696360;28;974;-62
2021/09/11 00:30:47;;;;;;;10.47;5.00;;;;;;;17.54;82.45;101429.56;696476;28;1024;-61
2021/09/11 00:31:08;;;;;;;10.93;5.20;;;;;;;17.53;82.28;101433.19;696302;28;1323;-61
2021/09/11 00:31:29;;;;;;;9.57;4.90;;;;;;;17.51;82.50;101435.09;696433;28;894;-60
2021/09/11 00:31:49;;;;;;;10.13;5.10;;;;;;;17.52;82.32;101430.63;696540;28;1004;-60
2021/09/11 00:32:10;;;;;;;9.90;5.07;;;;;;;17.52;82.30;101428.84;696419;28;1042;-61
2021/09/11 00:32:30;;;;;;;9.57;5.00;;;;;;;17.52;82.31;101428.84;696361;28;871;-60
2021/09/11 00:32:50;;;;;;;10.07;4.80;;;;;;;17.52;82.37;101426.16;696023;28;990;-60
2021/09/11 00:33:10;;;;;;;9.57;4.80;;;;;;;17.52;82.74;101426.16;696396;28;999;-60
2021/09/11 00:33:33;;;;;;;9.03;5.17;;;;;;;17.52;82.49;101426.16;696597;28;933;-60
2021/09/11 00:33:56;;;;;;;9.98;5.07;;;;;;;17.55;82.51;101435.78;696483;28;935;-61
2021/09/11 00:34:17;;;;;;;10.52;5.10;;;;;;;17.56;82.69;101429.50;696305;28;1006;-61
2021/09/11 00:34:39;;;;;;;10.05;5.18;;;;;;;17.55;82.49;101436.63;696432;28;915;-60
2021/09/11 00:35:01;;;;;;;10.38;4.93;;;;;;;17.55;82.36;101436.63;696421;28;883;-61
2021/09/11 00:35:21;;;;;;;10.00;5.00;;;;;;;17.55;82.56;101427.78;696250;28;1395;-61
2021/09/11 00:35:41;;;;;;;11.00;5.30;;;;;;;17.58;82.50;101424.06;696463;28;1265;-60
2021/09/11 00:36:02;;;;;;;8.88;5.30;;;;;;;17.59;82.59;101436.44;696517;28;906;-63
2021/09/11 00:36:23;;;;;;;9.02;5.30;;;;;;;17.56;82.71;101433.00;696328;28;829;-62
2021/09/11 00:36:43;;;;;;;9.50;4.90;;;;;;;17.56;82.71;101438.34;696543;28;888;-61
2021/09/11 00:37:04;;;;;;;10.03;5.03;;;;;;;17.57;82.46;101423.19;696359;28;849;-60
2021/09/11 00:37:24;;;;;;;9.90;4.97;;;;;;;17.55;82.58;101431.31;696396;28;995;-61
2021/09/11 00:37:45;;;;;;;10.63;5.50;;;;;;;17.59;82.52;101428.47;696482;28;927;-60
2021/09/11 00:38:08;;;;;;;10.63;5.18;;;;;;;17.58;82.79;101432.91;696319;28;1770;-61
2021/09/11 00:38:29;;;;;;;8.95;4.82;;;;;;;17.57;82.50;101428.53;696366;28;931;-61
2021/09/11 00:38:49;;;;;;;9.97;4.80;;;;;;;17.58;82.85;101432.06;696519;28;918;-61
2021/09/11 00:39:09;;;;;;;11.23;4.93;;;;;;;17.62;82.53;101428.25;696136;28;878;-60
2021/09/11 00:39:30;;;;;;;10.30;4.80;;;;;;;17.61;82.51;101429.19;696497;28;868;-60
2021/09/11 00:39:53;;;;;;;10.20;4.88;;;;;;;17.62;82.74;101430.91;696516;28;1031;-61
2021/09/11 00:40:16;;;;;;;11.27;4.70;;;;;;;17.61;82.51;101423.88;696400;28;1023;-62
2021/09/11 00:40:36;;;;;;;11.75;4.90;;;;;;;17.61;82.65;101423.88;696387;28;984;-62
2021/09/11 00:40:56;;;;;;;9.10;4.93;;;;;;;17.59;82.49;101425.78;696466;28;879;-61
2021/09/11 00:41:19;;;;;;;9.10;4.87;;;;;;;17.61;82.75;101426.53;696383;28;887;-61
2021/09/11 00:41:40;;;;;;;10.38;5.15;;;;;;;17.62;82.64;101426.47;696185;28;903;-62
2021/09/11 00:42:03;;;;;;;12.20;5.10;;;;;;;17.62;82.92;101425.56;696180;28;824;-61
2021/09/11 00:42:23;;;;;;;10.52;4.95;;;;;;;17.61;82.75;101422.06;696235;28;996;-61
2021/09/11 00:42:47;;;;;;;9.60;4.90;;;;;;;17.62;82.78;101420.25;695795;28;1001;-61
2021/09/11 00:43:08;;;;;;;10.20;5.03;;;;;;;17.63;82.63;101427.31;696281;28;929;-62
2021/09/11 00:43:28;;;;;;;8.52;4.70;;;;;;;17.61;82.97;101426.53;696191;28;991;-62
2021/09/11 00:43:50;;;;;;;9.67;5.03;;;;;;;17.61;82.66;101419.38;696435;28;844;-62
2021/09/11 00:44:10;;;;;;;10.68;5.00;;;;;;;17.61;83.04;101418.53;696437;28;981;-62
2021/09/11 00:44:30;;;;;;;9.47;4.83;;;;;;;17.60;82.54;101425.69;696422;28;862;-62
2021/09/11 00:44:51;;;;;;;10.43;4.90;;;;;;;17.59;82.98;101415.97;696327;28;1014;-62
2021/09/11 00:45:11;;;;;;;10.00;4.87;;;;;;;17.58;82.96;101427.56;696426;28;1349;-61
2021/09/11 00:45:31;;;;;;;9.73;5.00;;;;;;;17.59;82.98;101426.66;696398;28;847;-61
2021/09/11 00:45:55;;;;;;;9.90;5.40;;;;;;;17.63;82.90;101421.97;696363;28;829;-61
2021/09/11 00:46:18;;;;;;;11.30;5.32;;;;;;;17.63;83.22;101421.97;696264;28;1026;-62
2021/09/11 00:46:42;;;;;;;13.77;5.45;;;;;;;17.62;83.14;101425.56;696374;28;829;-61
2021/09/11 00:47:02;;;;;;;11.38;5.47;;;;;;;17.61;83.08;101421.19;696419;28;1081;-61
2021/09/11 00:47:22;;;;;;;10.25;5.03;;;;;;;17.61;83.24;101423.88;696493;28;879;-61
2021/09/11 00:47:44;;;;;;;10.97;5.07;;;;;;;17.61;83.16;101418.53;696266;28;1072;-61
2021/09/11 00:48:07;;;;;;;12.48;5.07;;;;;;;17.64;83.32;101426.34;696490;28;848;-61
2021/09/11 00:48:30;;;;;;;11.90;5.30;;;;;;;17.62;83.37;101420.25;696170;28;884;-61
2021/09/11 00:48:51;;;;;;;10.43;5.30;;;;;;;17.60;83.43;101420.34;696468;28;840;-62
2021/09/11 00:49:11;;;;;;;11.52;5.30;;;;;;;17.61;83.35;101418.53;696426;28;875;-61
2021/09/11 00:49:32;;;;;;;11.57;5.07;;;;;;;17.61;83.49;101419.38;696378;28;1014;-61
2021/09/11 00:49:53;;;;;;;10.13;5.30;;;;;;;17.62;83.69;101420.25;696309;28;746;-61
2021/09/11 00:50:14;;;;;;;11.30;5.10;;;;;;;17.63;83.26;101421.97;696422;28;1973;-62
2021/09/11 00:50:34;;;;;;;10.90;5.03;;;;;;;17.62;83.32;101426.47;696409;28;946;-61
2021/09/11 00:50:55;;;;;;;11.43;5.10;;;;;;;17.62;83.47;101426.47;696480;28;887;-61
2021/09/11 00:51:15;;;;;;;12.07;5.27;;;;;;;17.71;82.96;101422.34;696288;28;932;-62
2021/09/11 00:51:39;;;;;;;11.48;5.20;;;;;;;17.69;83.22;101424.28;696509;28;891;-61
2021/09/11 00:51:59;;;;;;;11.30;5.20;;;;;;;17.67;83.25;101424.34;696305;28;1170;-61
2021/09/11 00:52:21;;;;;;;11.35;5.28;;;;;;;17.66;83.19;101422.63;696373;28;871;-61
2021/09/11 00:52:43;;;;;;;11.60;5.60;;;;;;;17.67;83.20;101419.00;696157;28;880;-61
2021/09/11 00:53:06;;;;;;;12.73;5.28;;;;;;;17.68;83.11;101422.53;696367;28;828;-61
2021/09/11 00:53:26;;;;;;;11.82;5.22;;;;;;;17.68;83.22;101419.88;696481;28;855;-61
2021/09/11 00:53:47;;;;;;;11.07;5.25;;;;;;;17.69;83.52;101426.94;696456;28;808;-61
2021/09/11 00:54:09;;;;;;;12.30;5.13;;;;;;;17.68;83.54;101423.38;696372;28;974;-61
2021/09/11 00:54:29;;;;;;;11.35;4.90;;;;;;;17.66;83.47;101427.13;696419;28;883;-62
2021/09/11 00:54:50;;;;;;;12.68;5.32;;;;;;;17.66;83.20;101419.13;696502;28;879;-62
2021/09/11 00:55:12;;;;;;;13.47;5.47;;;;;;;17.66;83.57;101427.13;696266;28;1430;-62
2021/09/11 00:55:32;;;;;;;10.30;5.22;;;;;;;17.66;83.36;101421.78;696525;28;835;-61
2021/09/11 00:55:55;;;;;;;9.98;4.95;;;;;;;17.66;83.48;101424.47;696455;28;879;-61
2021/09/11 00:56:16;;;;;;;9.75;5.03;;;;;;;17.66;83.50;101427.13;696464;28;947;-61
2021/09/11 00:56:37;;;;;;;10.95;4.90;;;;;;;17.64;83.50;101424.53;696379;28;1003;-61
2021/09/11 00:56:57;;;;;;;12.90;5.05;;;;;;;17.66;83.24;101424.47;696349;28;924;-61
2021/09/11 00:57:19;;;;;;;11.70;4.73;;;;;;;17.66;83.08;101421.78;696430;28;816;-62
2021/09/11 00:57:44;;;;;;;9.93;4.50;;;;;;;17.64;83.15;101423.69;696475;28;989;-62
2021/09/11 00:58:05;;;;;;;11.63;4.65;;;;;;;17.69;83.26;101421.59;696258;28;887;-61
2021/09/11 00:58:26;;;;;;;12.48;5.15;;;;;;;17.69;82.98;101426.94;696409;28;903;-62
2021/09/11 00:58:48;;;;;;;10.45;4.60;;;;;;;17.69;83.08;101429.59;696439;28;879;-62
2021/09/11 00:59:08;;;;;;;11.10;4.68;;;;;;;17.69;83.22;101427.78;696440;28;975;-62
2021/09/11 00:59:29;;;;;;;11.47;4.67;;;;;;;17.68;82.96;101430.53;696464;28;895;-61
2021/09/11 00:59:49;;;;;;;13.03;4.97;;;;;;;17.66;83.02;101427.97;696284;28;828;-62
2021/09/11 01:00:13;;;;;;;13.07;4.83;;;;;;;17.73;82.86;101428.44;696119;28;871;-62
2021/09/11 01:00:34;;;;;;;14.63;5.18;;;;;;;17.74;82.90;101428.34;696230;28;1037;-61
2021/09/11 01:00:54;;;;;;;13.63;4.83;;;;;;;17.73;82.87;101428.44;696437;28;844;-61
2021/09/11 01:01:15;;;;;;;10.70;4.70;;;;;;;17.71;83.05;101425.00;696437;28;1030;-62
2021/09/11 01:01:35;;;;;;;10.52;4.78;;;;;;;17.70;82.97;101425.97;696392;28;938;-62
2021/09/11 01:01:55;;;;;;;10.87;5.03;;;;;;;17.71;83.03;101425.00;696452;28;863;-61
2021/09/11 01:02:15;;;;;;;11.95;4.97;;;;;;;17.70;82.79;101425.97;696342;28;931;-61
2021/09/11 01:02:38;;;;;;;11.97;4.47;;;;;;;17.70;82.77;101424.16;696381;28;1255;-61
2021/09/11 01:03:02;;;;;;;11.93;4.80;;;;;;;17.71;83.04;101422.34;696177;28;922;-61
2021/09/11 01:03:23;;;;;;;11.68;4.70;;;;;;;17.68;83.19;101425.19;696403;28;1026;-61
2021/09/11 01:03:43;;;;;;;13.18;4.82;;;;;;;17.69;82.98;101427.78;696398;28;844;-61
2021/09/11 01:04:04;;;;;;;12.47;5.03;;;;;;;17.66;83.08;101424.47;696432;28;1014;-61
2021/09/11 01:04:28;;;;;;;12.23;4.63;;;;;;;17.67;83.00;101429.69;696227;28;914;-61
2021/09/11 01:04:48;;;;;;;12.32;4.75;;;;;;;17.67;83.18;101423.50;696398;28;928;-61
2021/09/11 01:05:09;;;;;;;12.20;5.22;;;;;;;17.68;83.13;101430.53;696408;28;1334;-62
2021/09/11 01:05:30;;;;;;;11.02;4.97;;;;;;;17.65;83.03;101425.38;696322;28;838;-61
2021/09/11 01:05:50;;;;;;;12.40;5.18;;;;;;;17.67;82.97;101418.16;696451;28;1006;-61
2021/09/11 01:06:11;;;;;;;12.47;5.00;;;;;;;17.66;82.83;101425.31;696471;28;840;-62
2021/09/11 01:06:32;;;;;;;11.50;4.80;;;;;;;17.67;83.18;101427.00;696165;28;824;-61
2021/09/11 01:06:52;;;;;;;12.07;4.80;;;;;;;17.66;83.19;101429.78;696408;28;868;-62
2021/09/11 01:07:12;;;;;;;10.53;4.53;;;;;;;17.66;83.29;101425.31;696458;28;951;-62
2021/09/11 01:07:34;;;;;;;10.70;4.40;;;;;;;17.65;83.15;101422.72;696289;28;939;-61
2021/09/11 01:07:55;;;;;;;12.25;4.90;;;;;;;17.66;83.20;101424.47;696402;28;856;-61
2021/09/11 01:08:18;;;;;;;11.00;4.83;;;;;;;17.66;83.56;101421.78;696248;28;1775;-61
2021/09/11 01:08:40;;;;;;;10.43;4.95;;;;;;;17.66;83.43;101419.97;696078;28;1416;-61
2021/09/11 01:09:01;;;;;;;12.00;4.70;;;;;;;17.68;83.23;101425.19;696396;28;864;-62
2021/09/11 01:09:21;;;;;;;12.60;4.70;;;;;;;17.67;83.38;101429.69;696343;28;864;-62
2021/09/11 01:09:42;;;;;;;12.38;4.60;;;;;;;17.66;83.52;101427.13;696416;28;891;-61
2021/09/11 01:10:03;;;;;;;11.27;4.90;;;;;;;17.68;83.47;101427.88;696404;28;951;-61
2021/09/11 01:10:23;;;;;;;10.52;5.03;;;;;;;17.71;83.18;101422.34;696158;28;1979;-60
2021/09/11 01:10:43;;;;;;;11.98;5.40;;;;;;;17.70;83.21;101433.97;696358;28;859;-62
2021/09/11 01:11:04;;;;;;;11.73;5.17;;;;;;;17.70;83.21;101429.50;696338;28;808;-61
2021/09/11 01:11:30;;;;;;;11.07;5.00;;;;;;;17.70;83.28;101424.16;696463;28;867;-61
2021/09/11 01:11:51;;;;;;;9.85;4.75;;;;;;;17.70;83.07;101424.16;696363;28;968;-62
2021/09/11 01:12:12;;;;;;;11.15;4.82;;;;;;;17.71;83.38;101425.00;696367;28;901;-62
2021/09/11 01:12:33;;;;;;;9.63;4.67;;;;;;;17.70;83.29;101429.50;696306;28;978;-61
2021/09/11 01:12:53;;;;;;;11.98;5.07;;;;;;;17.71;83.38;101441.00;695858;28;1089;-61
2021/09/11 01:13:14;;;;;;;13.83;5.30;;;;;;;17.72;83.11;101424.06;696415;28;915;-62
2021/09/11 01:13:35;;;;;;;12.82;4.45;;;;;;;17.72;83.41;101426.72;696475;28;881;-61
2021/09/11 01:13:58;;;;;;;12.57;4.80;;;;;;;17.72;83.26;101426.72;696282;28;851;-61
2021/09/11 01:14:18;;;;;;;12.77;4.85;;;;;;;17.70;83.54;101424.16;696417;28;956;-61
2021/09/11 01:14:38;;;;;;;12.57;4.57;;;;;;;17.71;83.51;101430.34;696279;28;859;-61
2021/09/11 01:15:04;;;;;;;12.47;4.80;;;;;;;17.70;83.23;101428.63;696191;28;1417;-62
2021/09/11 01:15:37;;;;;;;10.63;4.57;;;;;;;17.71;83.28;101425.00;696350;28;828;-61
2021/09/11 01:15:59;;;;;;;12.30;4.78;;;;;;;17.70;83.41;101428.63;696194;28;955;-61
2021/09/11 01:16:19;;;;;;;11.45;4.35;;;;;;;17.69;83.45;101434.94;696427;28;900;-61
2021/09/11 01:16:40;;;;;;;12.00;4.37;;;;;;;17.65;83.35;101436.94;696189;28;1003;-61
2021/09/11 01:17:00;;;;;;;12.87;4.77;;;;;;;17.65;83.51;101428.06;696160;28;1257;-62
2021/09/11 01:17:20;;;;;;;11.90;5.50;;;;;;;17.65;83.55;101431.59;696435;28;852;-61
2021/09/11 01:17:42;;;;;;;11.20;4.83;;;;;;;17.68;83.52;101425.19;696280;28;1208;-61
2021/09/11 01:18:03;;;;;;;11.98;4.75;;;;;;;17.68;83.51;101431.38;696253;28;1391;-61
2021/09/11 01:18:29;;;;;;;11.98;5.07;;;;;;;17.66;83.83;101421.78;696384;28;1014;-60
2021/09/11 01:18:52;;;;;;;11.45;5.10;;;;;;;17.64;83.65;101424.53;696117;28;1455;-61
2021/09/11 01:19:15;;;;;;;12.38;5.20;;;;;;;17.68;83.82;101427.88;696303;28;1266;-61
2021/09/11 01:19:38;;;;;;;12.73;4.70;;;;;;;17.68;83.65;101425.19;696444;28;902;-61
2021/09/11 01:20:01;;;;;;;13.75;4.70;;;;;;;17.67;83.60;101424.34;695991;28;1283;-61
2021/09/11 01:20:21;;;;;;;11.52;5.15;;;;;;;17.67;83.34;101423.50;696224;28;1026;-61
2021/09/11 01:20:41;;;;;;;10.20;4.80;;;;;;;17.67;83.60;101420.81;695983;28;1383;-62
2021/09/11 01:21:02;;;;;;;12.03;4.50;;;;;;;17.66;83.61;101422.63;696053;28;889;-62
2021/09/11 01:21:25;;;;;;;10.90;4.45;;;;;;;17.68;83.54;101428.72;696080;28;1003;-62
2021/09/11 01:21:48;;;;;;;12.30;4.80;;;;;;;17.68;83.62;101420.72;696261;28;903;-61
2021/09/11 01:22:27;;;;;;;14.00;4.95;;;;;;;17.68;83.47;101423.38;696383;28;856;-62
2021/09/11 01:22:47;;;;;;;11.18;4.75;;;;;;;17.70;83.56;101424.16;695848;28;871;-62
2021/09/11 01:23:07;;;;;;;10.37;4.83;;;;;;;17.69;83.42;101424.28;696240;28;1029;-61
2021/09/11 01:23:28;;;;;;;10.63;4.70;;;;;;;17.69;83.73;101416.28;696358;28;899;-61
2021/09/11 01:23:48;;;;;;;12.15;5.10;;;;;;;17.68;83.61;101425.19;696402;28;858;-61
2021/09/11 01:24:11;;;;;;;13.10;5.23;;;;;;;17.69;83.70;101416.28;696311;28;823;-61
2021/09/11 01:24:32;;;;;;;13.35;5.32;;;;;;;17.68;83.61;101425.19;696437;28;955;-61
2021/09/11 01:25:08;;;;;;;11.13;4.97;;;;;;;17.69;83.52;101422.47;696324;28;916;-61
2021/09/11 01:25:28;;;;;;;10.70;5.00;;;;;;;17.68;83.74;101422.53;696442;28;986;-61
2021/09/11 01:25:48;;;;;;;12.00;5.07;;;;;;;17.69;83.82;101424.28;696460;28;876;-62
2021/09/11 01:26:15;;;;;;;12.85;5.05;;;;;;;17.67;83.85;101423.50;696219;28;1161;-62
2021/09/11 01:26:36;;;;;;;9.23;4.70;;;;;;;17.65;83.80;101418.28;696376;28;972;-62
2021/09/11 01:26:56;;;;;;;11.97;5.10;;;;;;;17.68;83.65;101419.88;696371;28;872;-62
2021/09/11 01:27:16;;;;;;;10.35;4.88;;;;;;;17.66;83.69;101427.13;696190;28;982;-62
2021/09/11 01:27:37;;;;;;;10.63;4.80;;;;;;;17.69;83.68;101424.28;696415;28;1004;-62
2021/09/11 01:27:58;;;;;;;13.52;5.32;;;;;;;17.68;83.33;101426.06;696382;28;1027;-62
2021/09/11 01:28:18;;;;;;;11.43;5.15;;;;;;;17.69;83.39;101425.13;696411;28;841;-64
2021/09/11 01:28:39;;;;;;;11.13;4.57;;;;;;;17.72;83.49;101416.06;696475;28;934;-61
2021/09/11 01:28:59;;;;;;;12.80;5.07;;;;;;;17.72;83.70;101421.38;696288;28;971;-61
2021/09/11 01:29:19;;;;;;;12.00;5.03;;;;;;;17.69;83.63;101421.59;696355;28;850;-62
2021/09/11 01:29:40;;;;;;;11.33;5.30;;;;;;;17.69;83.81;101433.13;696314;28;1030;-61
2021/09/11 01:30:05;;;;;;;13.93;5.27;;;;;;;17.68;84.04;101422.53;696273;28;864;-61
2021/09/11 01:30:25;;;;;;;11.35;4.95;;;;;;;17.70;83.61;101425.97;696262;28;2074;-61
2021/09/11 01:30:45;;;;;;;9.63;4.97;;;;;;;17.70;83.52;101416.16;696303;28;883;-61
2021/09/11 01:31:05;;;;;;;12.30;4.73;;;;;;;17.72;83.43;101422.25;696165;28;1343;-61
2021/09/11 01:31:33;;;;;;;11.43;4.63;;;;;;;17.71;83.52;101425.00;696246;28;966;-61
2021/09/11 01:31:53;;;;;;;11.77;4.78;;;;;;;17.68;83.35;101419.88;696301;28;880;-61
2021/09/11 01:32:14;;;;;;;13.20;5.00;;;;;;;17.67;83.75;101424.34;696404;28;855;-61
2021/09/11 01:32:35;;;;;;;13.93;5.22;;;;;;;17.66;83.79;101421.78;696356;28;851;-61
2021/09/11 01:32:56;;;;;;;15.90;5.30;;;;;;;17.67;83.68;101423.50;695709;28;874;-61
2021/09/11 01:33:16;;;;;;;13.00;5.13;;;;;;;17.66;83.76;101424.47;696275;28;991;-62
2021/09/11 01:33:39;;;;;;;12.77;4.87;;;;;;;17.66;83.61;101419.13;696159;28;1301;-61
2021/09/11 01:34:00;;;;;;;12.52;5.28;;;;;;;17.67;83.48;101424.34;696366;28;844;-62
2021/09/11 01:34:20;;;;;;;11.13;4.97;;;;;;;17.71;83.50;101414.34;696559;28;923;-62
2021/09/11 01:34:41;;;;;;;13.40;5.00;;;;;;;17.71;83.58;101419.69;696457;28;978;-63
2021/09/11 01:35:02;;;;;;;13.53;4.73;;;;;;;17.71;83.63;101414.34;696513;28;1429;-61
2021/09/11 01:35:22;;;;;;;14.07;4.80;;;;;;;17.69;83.61;101421.59;696498;28;926;-62
2021/09/11 01:35:45;;;;;;;11.80;4.97;;;;;;;17.73;83.60;101417.78;696411;28;871;-62
2021/09/11 01:36:05;;;;;;;13.77;4.90;;;;;;;17.74;83.60;101420.34;696527;28;869;-62
2021/09/11 01:36:29;;;;;;;10.63;4.70;;;;;;;17.74;83.66;101414.16;696415;28;831;-62
2021/09/11 01:36:49;;;;;;;11.48;4.72;;;;;;;17.75;83.32;101410.53;696570;28;824;-62
2021/09/11 01:37:11;;;;;;;10.77;4.53;;;;;;;17.73;83.55;101409.78;696640;28;910;-63
2021/09/11 01:37:34;;;;;;;11.38;4.57;;;;;;;17.71;83.68;101419.69;696357;28;1013;-63
2021/09/11 01:37:54;;;;;;;11.70;4.93;;;;;;;17.69;83.63;101417.13;696594;28;823;-63
2021/09/11 01:38:14;;;;;;;10.70;4.83;;;;;;;17.73;83.41;101415.13;696471;28;814;-63
2021/09/11 01:38:35;;;;;;;12.07;4.95;;;;;;;17.72;83.66;101416.06;696486;28;879;-62
2021/09/11 01:38:55;;;;;;;12.63;5.37;;;;;;;17.71;83.72;101419.69;696482;28;859;-63
2021/09/11 01:39:15;;;;;;;11.23;5.10;;;;;;;17.71;83.63;101415.19;696527;28;832;-65
2021/09/11 01:39:38;;;;;;;13.82;5.25;;;;;;;17.71;83.62;101417.00;696330;28;963;-62
2021/09/11 01:39:59;;;;;;;12.00;5.05;;;;;;;17.70;83.58;101412.66;696442;28;812;-62
2021/09/11 01:40:23;;;;;;;12.70;4.93;;;;;;;17.71;83.73;101414.34;696247;28;958;-61
2021/09/11 01:40:43;;;;;;;13.27;5.30;;;;;;;17.71;83.58;101414.34;696307;28;892;-61
2021/09/11 01:41:03;;;;;;;13.73;5.27;;;;;;;17.72;83.77;101418.72;696325;28;785;-62
2021/09/11 01:41:23;;;;;;;13.10;5.23;;;;;;;17.71;83.49;101422.34;696225;28;834;-62